Terminal Aerodrome Forecast
Issued by NWS

Home | Current Version | Previous Version | Text Only | Print | Product List | Glossary On
Versions: 1 2 3 4 5 6 7 8 9 10 11 12 13 14 15
000
FTUS44 KCRP 261120
TAFALI
TAF
KALI 261120Z 2612/2712 VRB06KT P6SM VCSH SCT015 BKN250
      TEMPO 2612/2616 -SHRA BKN020
     FM261600 08008KT P6SM VCTS BKN035CB
      TEMPO 2618/2622 5SM TSRA OVC030CB
     FM262200 10014G18KT P6SM VCSH SCT050 BKN250
     FM270200 VRB06KT P6SM VCSH SCT025 BKN050=

USA.gov is the U.S. government's official web portal to all federal, state and local government web resources and services.